»·PEaware :: N431JP KSNA-KRNM

N431JP :: KSNA-KRNM

FLIGHT INFORMATION

Flight Status: Arrived
Operator: Privately registered:
United States
More flights under this callsign
Pilot: Marek P. (484)
Aircraft: Diamond DA-40
(DA40)
More flights by this aircraft type
Origin: KSNA John Wayne-Orange Co
United States
Destination: KRNM Ramona
United States
More flights between these airports :: More routes between these airports
Route: +V23 OCN V208 JLI
File this flight plan on PilotEdge
Remarks:
Altitude:
(Current/Filed)
7,000ft
Speed:
(Current/Filed)
120kts
Departed: 19-Sep-20 01:18 PM
Arrived: 19-Sep-20 01:57 PM
Distance/Time
Traveled:
6774nm/0:39
Distance/Time
To Go:
Arrived

Flight Plot

Page will automatically refresh every two minutes.


Map Options




Map Legend


Flown Route
Filed Route
Departure Airport
Arrival Airport
Navaid (VOR, NDB)
Fix

Horizontal Profiles

Position Reports

Time Latitude Longitude Heading Altitude Ground
Speed
19-Sep-20 13:03 33.676156 -117.870972 183 52ft 0kts
19-Sep-20 13:04 33.676156 -117.870972 183 52ft 0kts
19-Sep-20 13:05 33.676156 -117.870972 183 52ft 0kts
19-Sep-20 13:06 33.676156 -117.870972 183 52ft 0kts
19-Sep-20 13:07 33.676156 -117.870972 183 52ft 0kts
19-Sep-20 13:08 33.676156 -117.870972 183 52ft 0kts
19-Sep-20 13:09 33.676156 -117.870972 183 52ft 0kts
19-Sep-20 13:10 33.676156 -117.870972 183 52ft 0kts
19-Sep-20 13:11 33.676156 -117.870972 183 52ft 0kts
19-Sep-20 13:12 33.676156 -117.870972 183 52ft 0kts
19-Sep-20 13:13 33.676266 -117.870936 45 52ft 0kts
19-Sep-20 13:14 33.678839 -117.868434 26 49ft 26kts
19-Sep-20 13:15 33.681280 -117.866481 122 43ft 0kts
19-Sep-20 13:16 33.680750 -117.865734 177 43ft 15kts
19-Sep-20 13:17 33.664076 -117.876119 208 253ft 95kts
19-Sep-20 13:18 33.637268 -117.885791 187 846ft 105kts
19-Sep-20 13:19 33.607652 -117.890478 187 1451ft 108kts
19-Sep-20 13:20 33.577358 -117.895290 187 2054ft 110kts
19-Sep-20 13:21 33.546605 -117.900184 187 2657ft 112kts
19-Sep-20 13:22 33.515469 -117.905146 187 3260ft 113kts
19-Sep-20 13:23 33.494086 -117.882988 112 3859ft 114kts
19-Sep-20 13:24 33.481725 -117.847826 112 4458ft 115kts
19-Sep-20 13:25 33.469228 -117.812235 112 5060ft 115kts
19-Sep-20 13:26 33.456644 -117.776521 112 5662ft 116kts
19-Sep-20 13:27 33.443985 -117.740604 112 6262ft 117kts
19-Sep-20 13:28 33.431264 -117.704536 112 6862ft 118kts
19-Sep-20 13:29 33.417432 -117.665188 112 7003ft 137kts
19-Sep-20 13:30 33.402383 -117.622434 112 7000ft 140kts
19-Sep-20 13:31 33.383795 -117.582015 125 7048ft 137kts
19-Sep-20 13:32 33.356960 -117.549172 145 7056ft 139kts
19-Sep-20 13:33 33.327749 -117.518593 136 7056ft 139kts
19-Sep-20 13:34 33.299971 -117.486224 135 7045ft 131kts
19-Sep-20 13:35 33.276056 -117.458384 135 7053ft 114kts
19-Sep-20 13:36 33.253519 -117.432158 135 7054ft 112kts
19-Sep-20 13:37 33.238531 -117.401025 96 7055ft 112kts
19-Sep-20 13:38 33.234613 -117.363840 97 7056ft 112kts
19-Sep-20 13:39 33.230299 -117.326825 97 7055ft 112kts
19-Sep-20 13:40 33.225988 -117.290385 97 7051ft 106kts
19-Sep-20 13:41 33.221613 -117.256458 99 7054ft 101kts
19-Sep-20 13:42 33.217171 -117.223410 99 7054ft 100kts
19-Sep-20 13:43 33.205389 -117.190697 118 6598ft 115kts
19-Sep-20 13:44 33.190355 -117.156632 117 5900ft 116kts
19-Sep-20 13:45 33.175318 -117.122592 117 5200ft 115kts
19-Sep-20 13:47 33.161764 -117.092048 118 5048ft 92kts
19-Sep-20 13:48 33.149886 -117.065475 117 4947ft 103kts
19-Sep-20 13:49 33.134344 -117.030269 117 4282ft 126kts
19-Sep-20 13:50 33.118667 -116.992660 115 3584ft 127kts
19-Sep-20 13:51 33.101505 -116.958185 123 3046ft 106kts
19-Sep-20 13:52 33.079372 -116.937506 148 2831ft 99kts
19-Sep-20 13:53 33.059003 -116.917463 108 2625ft 96kts
19-Sep-20 13:54 33.052044 -116.887073 104 2308ft 97kts
19-Sep-20 13:55 33.037751 -116.871841 226 2015ft 63kts
19-Sep-20 13:56 33.036746 -116.897891 274 1644ft 83kts
19-Sep-20 13:57 33.039618 -116.915048 347 1393ft 0kts
19-Sep-20 13:58 33.039952 -116.915885 278 1393ft 14kts
19-Sep-20 13:59 33.040648 -116.917075 179 1392ft 0kts
19-Sep-20 14:00 0.000408 0.013975 0 3ft 0kts
19-Sep-20 14:01 0.000408 0.013975 0 3ft 0kts
19-Sep-20 14:02 0.000408 0.013975 0 3ft 0kts
19-Sep-20 14:03 0.000408 0.013975 0 3ft 0kts

Navigation Log

Ident Type
Flight plan parsing failed, navigation log unavailable